sensor_id;sensor_type;location;lat;lon;timestamp;pressure;altitude;pressure_sealevel;temperature;humidity
29239;BME280;16267;48.194;11.546;2023-04-05T00:01:52;96400.44;;;1.17;53.36
29239;BME280;16267;48.194;11.546;2023-04-05T00:04:18;96396.22;;;1.16;53.28
29239;BME280;16267;48.194;11.546;2023-04-05T00:06:46;96390.94;;;1.16;53.25
29239;BME280;16267;48.194;11.546;2023-04-05T00:09:18;96396.56;;;1.15;53.22
29239;BME280;16267;48.194;11.546;2023-04-05T00:11:47;96388.94;;;1.13;53.33
29239;BME280;16267;48.194;11.546;2023-04-05T00:14:13;96388.84;;;1.09;53.49
29239;BME280;16267;48.194;11.546;2023-04-05T00:16:40;96392.91;;;1.07;53.48
29239;BME280;16267;48.194;11.546;2023-04-05T00:19:06;96392.47;;;1.05;53.87
29239;BME280;16267;48.194;11.546;2023-04-05T00:21:32;96385.19;;;1.02;53.63
29239;BME280;16267;48.194;11.546;2023-04-05T00:23:58;96384.41;;;1.01;53.65
29239;BME280;16267;48.194;11.546;2023-04-05T00:26:25;96378.69;;;0.99;53.56
29239;BME280;16267;48.194;11.546;2023-04-05T00:28:51;96373.28;;;0.96;53.72
29239;BME280;16267;48.194;11.546;2023-04-05T00:31:17;96375.16;;;0.95;54.01
29239;BME280;16267;48.194;11.546;2023-04-05T00:33:44;96379.22;;;0.93;54.09
29239;BME280;16267;48.194;11.546;2023-04-05T00:36:19;96381.41;;;0.91;53.83
29239;BME280;16267;48.194;11.546;2023-04-05T00:38:46;96380.97;;;0.88;53.90
29239;BME280;16267;48.194;11.546;2023-04-05T00:41:13;96376.34;;;0.85;54.25
29239;BME280;16267;48.194;11.546;2023-04-05T00:43:40;96382.28;;;0.82;54.51
29239;BME280;16267;48.194;11.546;2023-04-05T00:46:07;96372.72;;;0.78;54.61
29239;BME280;16267;48.194;11.546;2023-04-05T00:48:34;96367.28;;;0.74;54.64
29239;BME280;16267;48.194;11.546;2023-04-05T00:51:00;96369.81;;;0.71;55.14
29239;BME280;16267;48.194;11.546;2023-04-05T00:53:27;96371.56;;;0.66;55.28
29239;BME280;16267;48.194;11.546;2023-04-05T00:55:54;96376.72;;;0.63;55.35
29239;BME280;16267;48.194;11.546;2023-04-05T00:58:21;96360.00;;;0.59;55.62
29239;BME280;16267;48.194;11.546;2023-04-05T01:01:06;96367.78;;;0.55;55.55
29239;BME280;16267;48.194;11.546;2023-04-05T01:03:42;96365.78;;;0.52;55.63
29239;BME280;16267;48.194;11.546;2023-04-05T01:06:18;96364.25;;;0.51;55.53
29239;BME280;16267;48.194;11.546;2023-04-05T01:11:31;96352.00;;;0.47;55.52
29239;BME280;16267;48.194;11.546;2023-04-05T01:13:59;96347.06;;;0.45;55.31
29239;BME280;16267;48.194;11.546;2023-04-05T01:16:26;96348.16;;;0.44;55.34
29239;BME280;16267;48.194;11.546;2023-04-05T01:18:53;96348.50;;;0.42;55.19
29239;BME280;16267;48.194;11.546;2023-04-05T01:21:48;96348.50;;;0.42;55.08
29239;BME280;16267;48.194;11.546;2023-04-05T01:28:12;96340.88;;;0.41;55.11
29239;BME280;16267;48.194;11.546;2023-04-05T01:30:28;96340.13;;;0.40;55.03
29239;BME280;16267;48.194;11.546;2023-04-05T01:33:20;96332.84;;;0.37;54.94
29239;BME280;16267;48.194;11.546;2023-04-05T01:38:53;96330.84;;;0.34;55.65
29239;BME280;16267;48.194;11.546;2023-04-05T01:41:21;96325.88;;;0.33;56.06
29239;BME280;16267;48.194;11.546;2023-04-05T01:43:47;96324.34;;;0.32;55.76
29239;BME280;16267;48.194;11.546;2023-04-05T01:46:12;96326.22;;;0.31;55.91
29239;BME280;16267;48.194;11.546;2023-04-05T01:48:38;96322.03;;;0.30;56.31
29239;BME280;16267;48.194;11.546;2023-04-05T01:51:04;96321.59;;;0.28;56.26
29239;BME280;16267;48.194;11.546;2023-04-05T01:53:30;96320.69;;;0.24;56.09
29239;BME280;16267;48.194;11.546;2023-04-05T01:56:00;96317.59;;;0.22;56.53
29239;BME280;16267;48.194;11.546;2023-04-05T01:58:26;96320.13;;;0.18;57.10
29239;BME280;16267;48.194;11.546;2023-04-05T02:00:56;96317.03;;;0.16;56.86
29239;BME280;16267;48.194;11.546;2023-04-05T02:03:23;96319.66;;;0.16;56.49
29239;BME280;16267;48.194;11.546;2023-04-05T02:05:49;96312.84;;;0.15;56.57
29239;BME280;16267;48.194;11.546;2023-04-05T02:08:16;96312.84;;;0.15;56.96
29239;BME280;16267;48.194;11.546;2023-04-05T02:10:44;96315.03;;;0.13;56.86
29239;BME280;16267;48.194;11.546;2023-04-05T02:13:10;96313.97;;;0.14;56.46
29239;BME280;16267;48.194;11.546;2023-04-05T02:15:36;96306.34;;;0.13;56.53
29239;BME280;16267;48.194;11.546;2023-04-05T02:18:02;96308.22;;;0.12;56.76
29239;BME280;16267;48.194;11.546;2023-04-05T02:20:28;96306.69;;;0.11;57.39
29239;BME280;16267;48.194;11.546;2023-04-05T02:22:54;96316.78;;;0.09;57.38
29239;BME280;16267;48.194;11.546;2023-04-05T02:25:21;96310.75;;;0.09;57.05
29239;BME280;16267;48.194;11.546;2023-04-05T02:27:48;96309.94;;;0.08;57.39
29239;BME280;16267;48.194;11.546;2023-04-05T02:30:14;96299.38;;;0.08;57.17
29239;BME280;16267;48.194;11.546;2023-04-05T02:32:40;96303.47;;;0.06;56.92
29239;BME280;16267;48.194;11.546;2023-04-05T02:35:10;96308.75;;;0.06;57.20
29239;BME280;16267;48.194;11.546;2023-04-05T02:37:37;96312.47;;;0.05;57.25
29239;BME280;16267;48.194;11.546;2023-04-05T02:40:07;96303.03;;;0.04;57.32
29239;BME280;16267;48.194;11.546;2023-04-05T02:42:34;96303.78;;;0.04;57.11
29239;BME280;16267;48.194;11.546;2023-04-05T02:45:01;96300.69;;;0.02;57.53
29239;BME280;16267;48.194;11.546;2023-04-05T02:47:26;96290.91;;;0.03;57.71
29239;BME280;16267;48.194;11.546;2023-04-05T02:49:52;96297.63;;;0.00;58.52
29239;BME280;16267;48.194;11.546;2023-04-05T02:52:18;96295.00;;;0.00;58.03
29239;BME280;16267;48.194;11.546;2023-04-05T02:54:44;96287.06;;;0.00;58.38
29239;BME280;16267;48.194;11.546;2023-04-05T02:57:12;96288.91;;;-0.01;57.95
29239;BME280;16267;48.194;11.546;2023-04-05T02:59:38;96289.72;;;0.00;58.08
29239;BME280;16267;48.194;11.546;2023-04-05T03:02:05;96279.47;;;-0.02;58.22
29239;BME280;16267;48.194;11.546;2023-04-05T03:04:31;96281.66;;;-0.04;58.86
29239;BME280;16267;48.194;11.546;2023-04-05T03:07:00;96291.44;;;-0.04;58.60
29239;BME280;16267;48.194;11.546;2023-04-05T03:09:28;96280.41;;;-0.06;58.61
29239;BME280;16267;48.194;11.546;2023-04-05T03:12:02;96280.63;;;-0.11;59.96
29239;BME280;16267;48.194;11.546;2023-04-05T03:14:31;96287.47;;;-0.10;59.16
29239;BME280;16267;48.194;11.546;2023-04-05T03:16:57;96281.41;;;-0.11;58.86
29239;BME280;16267;48.194;11.546;2023-04-05T03:19:24;96282.50;;;-0.12;58.75
29239;BME280;16267;48.194;11.546;2023-04-05T03:21:51;96276.00;;;-0.14;59.18
29239;BME280;16267;48.194;11.546;2023-04-05T03:24:18;96274.44;;;-0.15;59.35
29239;BME280;16267;48.194;11.546;2023-04-05T03:26:47;96272.13;;;-0.17;59.48
29239;BME280;16267;48.194;11.546;2023-04-05T03:29:15;96277.41;;;-0.17;58.97
29239;BME280;16267;48.194;11.546;2023-04-05T03:31:40;96276.31;;;-0.16;59.52
29239;BME280;16267;48.194;11.546;2023-04-05T03:34:06;96280.38;;;-0.18;59.31
29239;BME280;16267;48.194;11.546;2023-04-05T03:36:32;96271.25;;;-0.21;60.06
29239;BME280;16267;48.194;11.546;2023-04-05T03:39:12;96275.00;;;-0.22;59.25
29239;BME280;16267;48.194;11.546;2023-04-05T03:41:41;96272.34;;;-0.22;59.34
29239;BME280;16267;48.194;11.546;2023-04-05T03:44:07;96265.50;;;-0.23;59.05
29239;BME280;16267;48.194;11.546;2023-04-05T03:46:33;96263.63;;;-0.23;59.37
29239;BME280;16267;48.194;11.546;2023-04-05T03:49:02;96272.34;;;-0.22;59.20
29239;BME280;16267;48.194;11.546;2023-04-05T03:51:28;96270.78;;;-0.23;59.24
29239;BME280;16267;48.194;11.546;2023-04-05T03:53:54;96271.56;;;-0.23;59.04
29239;BME280;16267;48.194;11.546;2023-04-05T03:56:20;96271.56;;;-0.23;59.14
29239;BME280;16267;48.194;11.546;2023-04-05T03:58:46;96277.63;;;-0.22;59.06
29239;BME280;16267;48.194;11.546;2023-04-05T04:01:14;96269.72;;;-0.22;59.43
29239;BME280;16267;48.194;11.546;2023-04-05T04:03:39;96270.03;;;-0.24;59.35
29239;BME280;16267;48.194;11.546;2023-04-05T04:06:06;96267.38;;;-0.24;59.02
29239;BME280;16267;48.194;11.546;2023-04-05T04:08:32;96268.50;;;-0.25;59.09
29239;BME280;16267;48.194;11.546;2023-04-05T04:10:58;96272.97;;;-0.25;59.20
29239;BME280;16267;48.194;11.546;2023-04-05T04:13:24;96266.16;;;-0.26;59.17
29239;BME280;16267;48.194;11.546;2023-04-05T04:15:51;96269.56;;;-0.26;59.24
29239;BME280;16267;48.194;11.546;2023-04-05T04:18:16;96270.66;;;-0.27;58.89
29239;BME280;16267;48.194;11.546;2023-04-05T04:20:42;96265.38;;;-0.27;58.96
29239;BME280;16267;48.194;11.546;2023-04-05T04:23:08;96266.50;;;-0.28;59.25
29239;BME280;16267;48.194;11.546;2023-04-05T04:25:35;96271.78;;;-0.28;58.99
29239;BME280;16267;48.194;11.546;2023-04-05T04:28:04;96266.81;;;-0.29;58.96
29239;BME280;16267;48.194;11.546;2023-04-05T04:30:34;96266.03;;;-0.30;59.20
29239;BME280;16267;48.194;11.546;2023-04-05T04:33:01;96266.03;;;-0.30;59.06
29239;BME280;16267;48.194;11.546;2023-04-05T04:35:31;96266.34;;;-0.31;59.26
29239;BME280;16267;48.194;11.546;2023-04-05T04:38:01;96268.97;;;-0.31;59.45
29239;BME280;16267;48.194;11.546;2023-04-05T04:40:33;96267.44;;;-0.32;59.80
29239;BME280;16267;48.194;11.546;2023-04-05T04:43:14;96264.81;;;-0.32;59.84
29239;BME280;16267;48.194;11.546;2023-04-05T04:45:48;96272.72;;;-0.32;59.34
29239;BME280;16267;48.194;11.546;2023-04-05T04:48:15;96266.69;;;-0.33;59.71
29239;BME280;16267;48.194;11.546;2023-04-05T04:50:47;96265.91;;;-0.33;60.08
29239;BME280;16267;48.194;11.546;2023-04-05T04:53:14;96270.09;;;-0.32;59.91
29239;BME280;16267;48.194;11.546;2023-04-05T04:55:43;96267.44;;;-0.32;59.71
29239;BME280;16267;48.194;11.546;2023-04-05T04:58:11;96262.19;;;-0.32;59.90
29239;BME280;16267;48.194;11.546;2023-04-05T05:00:41;96272.38;;;-0.31;59.89
29239;BME280;16267;48.194;11.546;2023-04-05T05:03:10;96269.75;;;-0.31;59.73
29239;BME280;16267;48.194;11.546;2023-04-05T05:05:45;96270.53;;;-0.30;59.90
29239;BME280;16267;48.194;11.546;2023-04-05T05:08:12;96273.94;;;-0.30;60.03
29239;BME280;16267;48.194;11.546;2023-04-05T05:10:38;96270.53;;;-0.30;59.98
29239;BME280;16267;48.194;11.546;2023-04-05T05:13:04;96271.78;;;-0.28;59.88
29239;BME280;16267;48.194;11.546;2023-04-05T05:15:30;96270.22;;;-0.29;60.21
29239;BME280;16267;48.194;11.546;2023-04-05T05:17:56;96266.50;;;-0.28;60.49
29239;BME280;16267;48.194;11.546;2023-04-05T05:20:24;96264.63;;;-0.27;60.36
29239;BME280;16267;48.194;11.546;2023-04-05T05:22:51;96264.28;;;-0.26;60.52
29239;BME280;16267;48.194;11.546;2023-04-05T05:25:17;96269.25;;;-0.24;60.85
29239;BME280;16267;48.194;11.546;2023-04-05T05:27:43;96270.03;;;-0.24;60.63
29239;BME280;16267;48.194;11.546;2023-04-05T05:30:10;96268.59;;;-0.21;61.11
29239;BME280;16267;48.194;11.546;2023-04-05T05:32:36;96265.63;;;-0.19;61.03
29239;BME280;16267;48.194;11.546;2023-04-05T05:35:02;96268.72;;;-0.17;61.12
29239;BME280;16267;48.194;11.546;2023-04-05T05:37:32;96267.66;;;-0.16;61.25
29239;BME280;16267;48.194;11.546;2023-04-05T05:39:58;96274.56;;;-0.12;61.38
29239;BME280;16267;48.194;11.546;2023-04-05T05:42:25;96269.00;;;-0.10;61.45
29239;BME280;16267;48.194;11.546;2023-04-05T05:44:54;96275.16;;;-0.06;61.47
29239;BME280;16267;48.194;11.546;2023-04-05T05:47:20;96280.88;;;-0.04;61.71
29239;BME280;16267;48.194;11.546;2023-04-05T05:49:46;96281.78;;;0.00;61.92
29239;BME280;16267;48.194;11.546;2023-04-05T05:52:14;96287.50;;;0.02;62.15
29239;BME280;16267;48.194;11.546;2023-04-05T05:54:40;96286.53;;;0.07;61.93
29239;BME280;16267;48.194;11.546;2023-04-05T05:57:06;96282.03;;;0.07;62.52
29239;BME280;16267;48.194;11.546;2023-04-05T05:59:31;96288.63;;;0.13;62.42
29239;BME280;16267;48.194;11.546;2023-04-05T06:01:57;96284.78;;;0.11;62.44
29239;BME280;16267;48.194;11.546;2023-04-05T06:04:23;96283.50;;;0.17;62.32
29239;BME280;16267;48.194;11.546;2023-04-05T06:06:49;96294.63;;;0.22;62.53
29239;BME280;16267;48.194;11.546;2023-04-05T06:09:15;96291.75;;;0.28;62.20
29239;BME280;16267;48.194;11.546;2023-04-05T06:11:41;96299.06;;;0.31;62.23
29239;BME280;16267;48.194;11.546;2023-04-05T06:14:07;96290.91;;;0.36;62.54
29239;BME280;16267;48.194;11.546;2023-04-05T06:16:33;96286.09;;;0.38;61.61
29239;BME280;16267;48.194;11.546;2023-04-05T06:19:00;96290.38;;;0.42;61.72
29239;BME280;16267;48.194;11.546;2023-04-05T06:21:26;96297.13;;;0.52;62.00
29239;BME280;16267;48.194;11.546;2023-04-05T06:24:04;96287.91;;;0.58;61.97
29239;BME280;16267;48.194;11.546;2023-04-05T06:26:30;96301.44;;;0.69;62.08
29239;BME280;16267;48.194;11.546;2023-04-05T06:28:56;96299.28;;;0.83;61.67
29239;BME280;16267;48.194;11.546;2023-04-05T06:31:32;96291.34;;;0.83;59.85
29239;BME280;16267;48.194;11.546;2023-04-05T06:33:58;96294.34;;;1.06;60.01
29239;BME280;16267;48.194;11.546;2023-04-05T06:36:24;96291.91;;;1.26;59.95
29239;BME280;16267;48.194;11.546;2023-04-05T06:38:51;96289.59;;;1.37;57.97
29239;BME280;16267;48.194;11.546;2023-04-05T06:41:17;96290.00;;;1.51;57.36
29239;BME280;16267;48.194;11.546;2023-04-05T06:43:43;96291.31;;;1.57;55.78
29239;BME280;16267;48.194;11.546;2023-04-05T06:46:10;96283.59;;;1.64;55.18
29239;BME280;16267;48.194;11.546;2023-04-05T06:48:37;96284.31;;;1.77;55.07
29239;BME280;16267;48.194;11.546;2023-04-05T06:51:04;96286.72;;;1.82;54.92
29239;BME280;16267;48.194;11.546;2023-04-05T06:53:30;96281.66;;;1.89;54.71
29239;BME280;16267;48.194;11.546;2023-04-05T06:56:07;96283.38;;;1.97;54.62
29239;BME280;16267;48.194;11.546;2023-04-05T06:58:32;96292.31;;;2.05;54.14
29239;BME280;16267;48.194;11.546;2023-04-05T07:01:00;96287.38;;;2.19;55.13
29239;BME280;16267;48.194;11.546;2023-04-05T07:03:26;96286.47;;;2.28;54.93
29239;BME280;16267;48.194;11.546;2023-04-05T07:05:54;96285.28;;;2.41;54.77
29239;BME280;16267;48.194;11.546;2023-04-05T07:08:34;96284.72;;;2.48;53.60
29239;BME280;16267;48.194;11.546;2023-04-05T07:11:00;96281.81;;;2.53;53.22
29239;BME280;16267;48.194;11.546;2023-04-05T07:13:26;96285.31;;;2.57;52.33
29239;BME280;16267;48.194;11.546;2023-04-05T07:15:58;96279.16;;;2.68;53.30
29239;BME280;16267;48.194;11.546;2023-04-05T07:18:27;96278.66;;;2.79;52.81
29239;BME280;16267;48.194;11.546;2023-04-05T07:20:56;96278.41;;;2.84;51.56
29239;BME280;16267;48.194;11.546;2023-04-05T07:23:26;96274.66;;;2.85;50.98
29239;BME280;16267;48.194;11.546;2023-04-05T07:25:53;96280.63;;;2.98;51.86
29239;BME280;16267;48.194;11.546;2023-04-05T07:28:19;96280.03;;;3.04;51.06
29239;BME280;16267;48.194;11.546;2023-04-05T07:30:45;96286.44;;;3.19;51.99
29239;BME280;16267;48.194;11.546;2023-04-05T07:33:14;96286.59;;;3.26;51.00
29239;BME280;16267;48.194;11.546;2023-04-05T07:35:40;96286.91;;;3.41;51.26
29239;BME280;16267;48.194;11.546;2023-04-05T07:38:07;96286.13;;;3.56;52.25
29239;BME280;16267;48.194;11.546;2023-04-05T07:40:35;96286.84;;;3.72;51.61
29239;BME280;16267;48.194;11.546;2023-04-05T07:43:10;96290.81;;;3.82;50.95
29239;BME280;16267;48.194;11.546;2023-04-05T07:45:36;96283.94;;;3.97;50.89
29239;BME280;16267;48.194;11.546;2023-04-05T07:48:02;96288.59;;;4.03;49.61
29239;BME280;16267;48.194;11.546;2023-04-05T07:50:28;96286.94;;;4.15;50.42
29239;BME280;16267;48.194;11.546;2023-04-05T07:52:53;96291.75;;;4.29;50.04
29239;BME280;16267;48.194;11.546;2023-04-05T07:55:21;96289.94;;;4.33;48.46
29239;BME280;16267;48.194;11.546;2023-04-05T07:57:47;96296.59;;;4.46;48.24
29239;BME280;16267;48.194;11.546;2023-04-05T08:00:13;96295.63;;;4.54;47.47
29239;BME280;16267;48.194;11.546;2023-04-05T08:02:40;96297.38;;;4.66;48.50
29239;BME280;16267;48.194;11.546;2023-04-05T08:05:06;96288.16;;;4.83;48.45
29239;BME280;16267;48.194;11.546;2023-04-05T08:07:31;96289.72;;;4.87;47.03
29239;BME280;16267;48.194;11.546;2023-04-05T08:09:57;96295.22;;;4.98;47.53
29239;BME280;16267;48.194;11.546;2023-04-05T08:12:25;96291.00;;;4.94;45.60
29239;BME280;16267;48.194;11.546;2023-04-05T08:14:51;96291.63;;;5.10;47.12
29239;BME280;16267;48.194;11.546;2023-04-05T08:17:17;96293.34;;;5.22;46.96
29239;BME280;16267;48.194;11.546;2023-04-05T08:19:44;96289.03;;;5.40;46.93
29239;BME280;16267;48.194;11.546;2023-04-05T08:22:13;96291.13;;;5.54;45.95
29239;BME280;16267;48.194;11.546;2023-04-05T08:24:41;96287.09;;;5.64;45.74
29239;BME280;16267;48.194;11.546;2023-04-05T08:27:07;96281.38;;;5.65;43.35
29239;BME280;16267;48.194;11.546;2023-04-05T08:29:38;96288.59;;;5.65;45.51
29239;BME280;16267;48.194;11.546;2023-04-05T08:32:20;96284.66;;;5.81;44.82
29239;BME280;16267;48.194;11.546;2023-04-05T08:34:48;96285.81;;;5.84;43.21
29239;BME280;16267;48.194;11.546;2023-04-05T08:37:14;96288.00;;;6.01;44.27
29239;BME280;16267;48.194;11.546;2023-04-05T08:39:43;96287.44;;;6.19;43.87
29239;BME280;16267;48.194;11.546;2023-04-05T08:42:40;96290.25;;;6.33;43.88
29239;BME280;16267;48.194;11.546;2023-04-05T08:45:09;96285.44;;;6.46;43.43
29239;BME280;16267;48.194;11.546;2023-04-05T08:47:38;96283.22;;;6.52;42.04
29239;BME280;16267;48.194;11.546;2023-04-05T08:50:04;96282.94;;;6.64;43.14
29239;BME280;16267;48.194;11.546;2023-04-05T08:52:33;96280.78;;;6.77;42.89
29239;BME280;16267;48.194;11.546;2023-04-05T08:55:05;96278.91;;;6.84;43.03
29239;BME280;16267;48.194;11.546;2023-04-05T08:57:31;96286.56;;;6.82;41.78
29239;BME280;16267;48.194;11.546;2023-04-05T09:00:00;96280.56;;;6.96;41.30
29239;BME280;16267;48.194;11.546;2023-04-05T09:02:28;96283.03;;;6.75;40.19
29239;BME280;16267;48.194;11.546;2023-04-05T09:04:54;96283.56;;;6.91;40.75
29239;BME280;16267;48.194;11.546;2023-04-05T09:07:21;96280.59;;;7.03;41.20
29239;BME280;16267;48.194;11.546;2023-04-05T09:09:52;96276.31;;;6.88;39.11
29239;BME280;16267;48.194;11.546;2023-04-05T09:12:20;96285.56;;;7.01;41.09
29239;BME280;16267;48.194;11.546;2023-04-05T09:14:54;96285.00;;;6.81;39.95
29239;BME280;16267;48.194;11.546;2023-04-05T09:17:20;96281.22;;;6.82;38.76
29239;BME280;16267;48.194;11.546;2023-04-05T09:19:47;96284.25;;;6.84;38.04
29239;BME280;16267;48.194;11.546;2023-04-05T09:22:15;96279.84;;;7.03;39.23
29239;BME280;16267;48.194;11.546;2023-04-05T09:24:44;96281.84;;;7.13;39.29
29239;BME280;16267;48.194;11.546;2023-04-05T09:27:12;96268.78;;;7.01;38.57
29239;BME280;16267;48.194;11.546;2023-04-05T09:29:44;96284.78;;;7.01;39.07
29239;BME280;16267;48.194;11.546;2023-04-05T09:32:12;96280.91;;;6.91;38.02
29239;BME280;16267;48.194;11.546;2023-04-05T09:34:39;96285.50;;;6.94;38.54
29239;BME280;16267;48.194;11.546;2023-04-05T09:37:21;96278.00;;;7.10;39.06
29239;BME280;16267;48.194;11.546;2023-04-05T09:39:49;96276.94;;;7.22;38.31
29239;BME280;16267;48.194;11.546;2023-04-05T09:42:18;96269.38;;;7.31;38.68
29239;BME280;16267;48.194;11.546;2023-04-05T09:44:54;96278.59;;;7.41;38.46
29239;BME280;16267;48.194;11.546;2023-04-05T09:47:24;96269.88;;;7.48;37.62
29239;BME280;16267;48.194;11.546;2023-04-05T09:49:50;96274.47;;;7.51;37.38
29239;BME280;16267;48.194;11.546;2023-04-05T09:52:26;96277.53;;;7.53;35.51
29239;BME280;16267;48.194;11.546;2023-04-05T09:54:59;96279.09;;;7.54;37.12
29239;BME280;16267;48.194;11.546;2023-04-05T09:57:26;96274.34;;;7.29;34.58
29239;BME280;16267;48.194;11.546;2023-04-05T09:59:54;96271.66;;;7.29;35.88
29239;BME280;16267;48.194;11.546;2023-04-05T10:02:24;96270.44;;;7.16;35.94
29239;BME280;16267;48.194;11.546;2023-04-05T10:04:50;96277.38;;;7.31;36.31
29239;BME280;16267;48.194;11.546;2023-04-05T10:07:18;96273.56;;;7.29;36.77
29239;BME280;16267;48.194;11.546;2023-04-05T10:09:46;96272.03;;;7.31;36.95
29239;BME280;16267;48.194;11.546;2023-04-05T10:12:24;96263.69;;;7.33;36.76
29239;BME280;16267;48.194;11.546;2023-04-05T10:14:54;96271.34;;;7.38;36.67
29239;BME280;16267;48.194;11.546;2023-04-05T10:17:51;96274.00;;;7.38;35.50
29239;BME280;16267;48.194;11.546;2023-04-05T10:20:22;96271.41;;;7.49;36.43
29239;BME280;16267;48.194;11.546;2023-04-05T10:28:35;96265.31;;;7.52;36.53
29239;BME280;16267;48.194;11.546;2023-04-05T10:31:25;96267.31;;;7.66;37.59
29239;BME280;16267;48.194;11.546;2023-04-05T10:34:07;96256.28;;;7.78;37.20
29239;BME280;16267;48.194;11.546;2023-04-05T10:36:59;96249.84;;;7.82;35.36
29239;BME280;16267;48.194;11.546;2023-04-05T10:39:49;96255.53;;;7.74;34.40
29239;BME280;16267;48.194;11.546;2023-04-05T10:42:33;96259.81;;;7.96;36.10
29239;BME280;16267;48.194;11.546;2023-04-05T10:45:06;96251.84;;;8.11;37.22
29239;BME280;16267;48.194;11.546;2023-04-05T10:47:51;96254.56;;;8.18;36.62
29239;BME280;16267;48.194;11.546;2023-04-05T10:50:22;96252.28;;;8.23;35.71
29239;BME280;16267;48.194;11.546;2023-04-05T10:52:51;96241.97;;;8.25;36.09
29239;BME280;16267;48.194;11.546;2023-04-05T10:55:19;96245.38;;;8.22;35.35
29239;BME280;16267;48.194;11.546;2023-04-05T10:57:46;96244.66;;;8.33;35.82
29239;BME280;16267;48.194;11.546;2023-04-05T11:00:14;96231.34;;;8.43;35.75
29239;BME280;16267;48.194;11.546;2023-04-05T11:02:43;96232.88;;;8.55;36.13
29239;BME280;16267;48.194;11.546;2023-04-05T11:05:29;96238.25;;;8.66;35.07
29239;BME280;16267;48.194;11.546;2023-04-05T11:08:03;96236.34;;;8.70;33.97
29239;BME280;16267;48.194;11.546;2023-04-05T11:10:30;96236.22;;;8.16;32.85
29239;BME280;16267;48.194;11.546;2023-04-05T11:15:34;96227.53;;;8.55;34.62
29239;BME280;16267;48.194;11.546;2023-04-05T11:18:10;96240.56;;;8.71;34.06
29239;BME280;16267;48.194;11.546;2023-04-05T11:20:47;96236.72;;;8.86;34.42
29239;BME280;16267;48.194;11.546;2023-04-05T11:23:23;96231.75;;;9.03;35.04
29239;BME280;16267;48.194;11.546;2023-04-05T11:26:11;96226.38;;;9.17;34.57
29239;BME280;16267;48.194;11.546;2023-04-05T11:28:38;96223.31;;;9.33;35.57
29239;BME280;16267;48.194;11.546;2023-04-05T11:31:19;96226.34;;;9.49;35.52
29239;BME280;16267;48.194;11.546;2023-04-05T11:36:11;96214.09;;;9.59;34.70
29239;BME280;16267;48.194;11.546;2023-04-05T11:38:43;96220.19;;;9.56;35.14
29239;BME280;16267;48.194;11.546;2023-04-05T11:41:15;96214.84;;;9.52;33.97
29239;BME280;16267;48.194;11.546;2023-04-05T11:43:50;96215.63;;;9.53;34.01
29239;BME280;16267;48.194;11.546;2023-04-05T11:46:17;96218.69;;;9.55;34.64
29239;BME280;16267;48.194;11.546;2023-04-05T11:48:49;96209.13;;;9.43;32.79
29239;BME280;16267;48.194;11.546;2023-04-05T11:51:15;96206.81;;;9.52;34.04
29239;BME280;16267;48.194;11.546;2023-04-05T11:53:48;96214.47;;;9.54;34.53
29239;BME280;16267;48.194;11.546;2023-04-05T11:56:13;96207.19;;;9.58;34.24
29239;BME280;16267;48.194;11.546;2023-04-05T11:58:41;96200.00;;;9.19;33.34
29239;BME280;16267;48.194;11.546;2023-04-05T12:01:08;96197.69;;;9.28;34.73
29239;BME280;16267;48.194;11.546;2023-04-05T12:03:35;96203.78;;;9.43;35.73
29239;BME280;16267;48.194;11.546;2023-04-05T12:06:04;96204.53;;;9.47;34.43
29239;BME280;16267;48.194;11.546;2023-04-05T12:08:39;96208.00;;;9.48;34.61
29239;BME280;16267;48.194;11.546;2023-04-05T12:11:10;96201.84;;;9.54;34.44
29239;BME280;16267;48.194;11.546;2023-04-05T12:13:38;96193.81;;;9.54;34.40
29239;BME280;16267;48.194;11.546;2023-04-05T12:16:05;96190.34;;;9.57;34.62
29239;BME280;16267;48.194;11.546;2023-04-05T12:18:34;96194.16;;;9.64;34.78
29239;BME280;16267;48.194;11.546;2023-04-05T12:21:08;96193.00;;;9.68;34.29
29239;BME280;16267;48.194;11.546;2023-04-05T12:23:35;96189.16;;;9.73;34.91
29239;BME280;16267;48.194;11.546;2023-04-05T12:26:02;96191.88;;;9.55;33.70
29239;BME280;16267;48.194;11.546;2023-04-05T12:28:54;96189.97;;;9.59;33.85
29239;BME280;16267;48.194;11.546;2023-04-05T12:31:40;96188.03;;;9.63;33.94
29239;BME280;16267;48.194;11.546;2023-04-05T12:34:07;96186.88;;;9.68;34.24
29239;BME280;16267;48.194;11.546;2023-04-05T12:36:34;96193.38;;;9.67;34.51
29239;BME280;16267;48.194;11.546;2023-04-05T12:39:04;96182.69;;;9.59;33.79
29239;BME280;16267;48.194;11.546;2023-04-05T12:41:31;96184.19;;;9.64;34.01
29239;BME280;16267;48.194;11.546;2023-04-05T12:43:58;96177.28;;;9.67;34.06
29239;BME280;16267;48.194;11.546;2023-04-05T12:46:47;96180.34;;;9.69;33.68
29239;BME280;16267;48.194;11.546;2023-04-05T12:49:17;96171.91;;;9.74;34.03
29239;BME280;16267;48.194;11.546;2023-04-05T12:51:47;96173.44;;;9.75;33.43
29239;BME280;16267;48.194;11.546;2023-04-05T12:54:14;96176.22;;;9.46;32.22
29239;BME280;16267;48.194;11.546;2023-04-05T12:56:48;96174.41;;;9.04;31.68
29239;BME280;16267;48.194;11.546;2023-04-05T12:59:14;96177.03;;;9.25;33.17
29239;BME280;16267;48.194;11.546;2023-04-05T13:01:40;96181.59;;;9.35;33.90
29239;BME280;16267;48.194;11.546;2023-04-05T13:04:06;96171.66;;;9.25;33.15
29239;BME280;16267;48.194;11.546;2023-04-05T13:06:32;96176.25;;;9.32;33.51
29239;BME280;16267;48.194;11.546;2023-04-05T13:08:57;96167.84;;;9.37;33.50
29239;BME280;16267;48.194;11.546;2023-04-05T13:11:23;96165.13;;;9.41;34.01
29239;BME280;16267;48.194;11.546;2023-04-05T13:13:49;96165.88;;;9.45;34.30
29239;BME280;16267;48.194;11.546;2023-04-05T13:16:15;96160.88;;;9.50;33.92
29239;BME280;16267;48.194;11.546;2023-04-05T13:18:41;96158.97;;;9.54;34.19
29239;BME280;16267;48.194;11.546;2023-04-05T13:21:07;96157.81;;;9.59;33.98
29239;BME280;16267;48.194;11.546;2023-04-05T13:23:35;96155.09;;;9.63;34.16
29239;BME280;16267;48.194;11.546;2023-04-05T13:26:02;96155.09;;;9.66;33.81
29239;BME280;16267;48.194;11.546;2023-04-05T13:28:28;96159.31;;;9.67;32.35